Nearby METAR Reports

 

EGEO - Oban, United Kingdom
Distance from station: SSW 18mi, 30km
Updated: 19/01/2022 15:50
NOT Current
Partly cloudy
Partly cloudy
 Wind from NW
Wind: NW 22 mph , 35 km/h
Temperature: 8°C
Wind Chill: 3°C
Dew Point: 3°C
Humidity: 71%
Barometer: 1027 hPa
Clouds: Partly cloudy
Visibility: 6 miles , 10 km
Cloud details: Partly cloudy 1158 m
2022/01/19 15:50 EGEO 191550Z 31019KT 9999 SCT038 08/03 Q1027
EGPU - Tiree, United Kingdom
Distance from station: WSW 64mi, 103km
Updated: 20/01/2022 04:20
Overcast
Overcast
 Wind from N
Wind: N 12 mph , 19 km/h
Temperature: 6°C
Wind Chill: 3°C
Dew Point: 2°C
Humidity: 76%
Barometer: 1036 hPa
Clouds: Overcast
Visibility: 6 miles , 10 km
Cloud details: Overcast 1158 m
2022/01/20 04:20 EGPU 200420Z AUTO 35010KT 9999 OVC038/// 06/02 Q1036
EGPF - Glasgow, United Kingdom
Distance from station: SSE 66mi, 107km
Updated: 20/01/2022 04:20
Clear
Clear
 Wind from W
Wind: W 5 mph , 7 km/h
Temperature: -1°C
Wind Chill: -4°C
Dew Point: -2°C
Humidity: 93%
Barometer: 1036 hPa
Clouds: Clear
Visibility: 6 miles , 10 km
2022/01/20 04:20 EGPF 200420Z AUTO 28004KT 9999 NCD M01/M02 Q1036
 
EGPE - Inverness, United Kingdom
Distance from station: NE 71mi, 114km
Updated: 20/01/2022 04:20
Partly cloudy
Partly cloudy
 Wind from W
Wind: W 8 mph , 13 km/h
Temperature: 3°C
Wind Chill: -1°C
Dew Point: -2°C
Humidity: 70%
Barometer: 1035 hPa
Clouds: Partly cloudy
Visibility: 6 miles , 10 km
Cloud details: Partly cloudy 1372 m
2022/01/20 04:20 EGPE 200420Z 27007KT 9999 SCT045 03/M02 Q1035
EGPI - Islay/Port Ellen, United Kingdom
Distance from station: SSW 81mi, 131km
Updated: 20/01/2022 04:20
Mostly cloudy
Mostly cloudy
 Wind from varies
Wind: varies 3 mph , 6 km/h
Temperature: 3°C
Dew Point: 1°C
Humidity: 87%
Barometer: 1036 hPa
Clouds: Mostly cloudy
Visibility: 6 miles , 10 km
Cloud details: Mostly cloudy 1341 m
2022/01/20 04:20 EGPI 200420Z AUTO VRB03KT 9999 BKN044/// 03/01 Q1036 RERA
EGPN - Dundee/Riverside, United Kingdom
Distance from station: E 86mi, 138km
Updated: 19/01/2022 20:50
NOT Current
Partly cloudy
Partly cloudy
 Wind from WNW
Wind: WNW 10 mph , 17 km/h
Temperature: 6°C
Wind Chill: 3°C
Dew Point: 1°C
Humidity: 71%
Barometer: 1029 hPa
Clouds: Partly cloudy
Visibility: 6 miles , 10 km
Cloud details: Partly cloudy 1463 m
2022/01/19 20:50 EGPN 192050Z 30009KT 9999 SCT048 06/01 Q1029
 
EGPK - Prestwick, United Kingdom
Distance from station: SSE 88mi, 141km
Updated: 20/01/2022 04:20
Clear
Clear
 Wind from varies
Wind: varies 1 mph , 2 km/h
Temperature: 0°C
Dew Point: -2°C
Humidity: 87%
Barometer: 1035 hPa
Summary: Clear
Visibility: greater than 7 miles , 10 km
2022/01/20 04:20 EGPK 200420Z VRB01KT CAVOK M00/M02 Q1035
EGPH - Edinburgh, United Kingdom
Distance from station: SE 89mi, 143km
Updated: 20/01/2022 04:20
Mostly cloudy
Mostly cloudy
 Wind from varies
Wind: varies 2 mph , 4 km/h
Temperature: 1°C
Dew Point: -3°C
Humidity: 75%
Barometer: 1035 hPa
Clouds: Mostly cloudy
Visibility: 6 miles , 10 km
Cloud details: Mostly cloudy 1433 m
2022/01/20 04:20 EGPH 200420Z VRB02KT 9999 BKN047 01/M03 Q1035
EGQK - RAF Kinloss, United Kingdom
Distance from station: NE 90mi, 144km
Updated: 20/01/2022 03:50
Overcast
Overcast
 Wind from WNW
Wind: WNW 13 mph , 20 km/h
Temperature: 3°C
Wind Chill: -2°C
Dew Point: -3°C
Humidity: 65%
Barometer: 1034 hPa
Clouds: Overcast
Visibility: 6 miles , 10 km
Cloud details: Overcast 1524 m
2022/01/20 03:50 EGQK 200350Z AUTO 29011KT 9999 OVC050/// 03/M03 Q1034
 
EGEC - Campbeltown, United Kingdom
Distance from station: S 90mi, 145km
Updated: 19/01/2022 17:20
NOT Current
Mostly cloudy
Mostly cloudy
 Wind from NW
Wind: NW 26 mph , 43 km/h, Gust: 41 mph , 67 km/h
Temperature: 7°C
Wind Chill: 2°C
Dew Point: 3°C
Humidity: 76%
Barometer: 1030 hPa
Clouds: Mostly cloudy
Visibility: 6 miles , 10 km
Cloud details: Few Clouds 945 m
Mostly cloudy 1463 m
2022/01/19 17:20 EGEC 191720Z 32023G36KT 9999 FEW031 BKN048 07/03 Q1030
EGQA - Tain Range, United Kingdom
Distance from station: NNE 91mi, 146km
Updated: 18/01/2022 14:50
NOT Current
Mostly cloudy
Mostly cloudy
 Wind from SSW
Wind: SSW 15 mph , 24 km/h
Clouds: Mostly cloudy
Visibility: 6 miles , 10 km
Cloud details: Few Clouds 427 m
Mostly cloudy 4267 m
2022/01/18 14:50 EGQA 181450Z 20013KT 9999 FEW014 BKN140 08/// Q1023 RMK BLU
EGQL - RAF Leuchars, United Kingdom
Distance from station: ESE 93mi, 149km
Updated: 20/01/2022 03:50
Clear
Clear
 Wind from NW
Wind: NW 10 mph , 17 km/h
Temperature: 3°C
Wind Chill: -1°C
Dew Point: -5°C
Humidity: 56%
Barometer: 1034 hPa
Summary: Clear
Visibility: greater than 7 miles , 10 km
2022/01/20 03:50 EGQL 200350Z 32009KT CAVOK 03/M05 Q1034 RMK BLU
 
EGPL - Benbecula, United Kingdom
Distance from station: WNW 96mi, 154km
Updated: 20/01/2022 04:20
Overcast
Overcast
 Wind from NW
Wind: NW 5 mph , 7 km/h
Temperature: 6°C
Wind Chill: 4°C
Dew Point: 2°C
Humidity: 76%
Barometer: 1037 hPa
Clouds: Overcast
Visibility: 6 miles , 10 km
Cloud details: Mostly cloudy 1219 m
Overcast 1402 m
2022/01/20 04:20 EGPL 200420Z AUTO 31004KT 9999 BKN040/// OVC046/// 06/02 Q1037
EGQS - RAF Lossiemouth, United Kingdom
Distance from station: NE 99mi, 160km
Updated: 20/01/2022 03:50
Mostly cloudy
Mostly cloudy
 Wind from NW
Wind: NW 18 mph , 30 km/h
Temperature: 4°C
Wind Chill: -1°C
Dew Point: -3°C
Humidity: 61%
Barometer: 1034 hPa
Clouds: Mostly cloudy
Visibility: 6 miles , 10 km
Cloud details: Few Clouds 1219 m
Mostly cloudy 1524 m
2022/01/20 03:50 EGQS 200350Z 32016KT 9999 FEW040 BKN050 04/M03 Q1034 RMK BLU
EGPO - Stornoway, United Kingdom
Distance from station: NNW 111mi, 179km
Updated: 20/01/2022 04:20
Mostly cloudy
Mostly cloudy
 Wind from WNW
Wind: WNW 8 mph , 13 km/h
Temperature: 2°C
Wind Chill: -1°C
Dew Point: 0°C
Humidity: 87%
Barometer: 1035 hPa
Clouds: Mostly cloudy
Visibility: 6 miles , 10 km
Cloud details: Mostly cloudy 1219 m
2022/01/20 04:20 EGPO 200420Z AUTO 29007KT 9999 BKN040/// 02/M00 Q1035
 
EGPD - Aberdeen/Dyce, United Kingdom
Distance from station: ENE 118mi, 190km
Updated: 20/01/2022 04:20
Overcast
Overcast
 Wind from NW
Wind: NW 15 mph , 24 km/h
Temperature: 3°C
Wind Chill: -2°C
Dew Point: -3°C
Humidity: 65%
Barometer: 1032 hPa
Clouds: Overcast
Visibility: 6 miles , 10 km
Cloud details: Overcast 1402 m
2022/01/20 04:20 EGPD 200420Z AUTO 32013KT 9999 OVC046 03/M03 Q1032
EGAE - Eglinton/Londond, United Kingdom
Distance from station: SSW 138mi, 222km
Updated: 19/01/2022 20:20
NOT Current
Light rain, Showers, Mostly cloudy
Light rain, Showers, Mostly cloudy
 Wind from NNW
Wind: NNW 17 mph , 28 km/h
Temperature: 7°C
Wind Chill: 3°C
Dew Point: 5°C
Humidity: 87%
Barometer: 1035 hPa
Summary: Light rain, Showers
Clouds: Mostly cloudy
Visibility: 6 miles , 10 km
Cloud details: Few Clouds 610 m
Mostly cloudy 914 m
2022/01/19 20:20 EGAE 192020Z 34015KT 9999 -SHRA FEW020 BKN030 07/05 Q1035
EGPC - Wick, United Kingdom
Distance from station: NNE 144mi, 232km
Updated: 20/01/2022 04:20
Mostly cloudy
Mostly cloudy
 Wind from NW
Wind: NW 18 mph , 30 km/h
Temperature: 3°C
Wind Chill: -3°C
Dew Point: -4°C
Humidity: 60%
Barometer: 1032 hPa
Clouds: Mostly cloudy
Visibility: 6 miles , 10 km
Cloud details: Mostly cloudy 1311 m
Mostly cloudy 1494 m
2022/01/20 04:20 EGPC 200420Z AUTO 32016KT 9999 BKN043/// BKN049/// 03/M04 Q1032

Metar display script from Saratoga-Weather.org